createdAt,value
2019-05-06T04:02:13.158Z,0
2019-05-06T04:05:43.706Z,0
2019-05-06T04:09:13.212Z,0
2019-05-06T04:12:43.424Z,24.5
2019-05-06T04:16:13.765Z,22.5
2019-05-06T04:19:43.657Z,22.5
2019-05-06T04:23:13.509Z,22.5
2019-05-06T04:26:46.378Z,22.5
2019-05-06T04:30:14.382Z,20.6
2019-05-06T04:33:49.954Z,22.200001
2019-05-06T04:37:14.396Z,22.200001
2019-05-06T04:40:45.875Z,22.200001
2019-05-06T04:44:17.821Z,22.200001
2019-05-06T04:47:48.850Z,22.200001
2019-05-06T04:52:48.829Z,0
2019-05-06T04:56:23.661Z,0
2019-05-06T04:59:54.143Z,0
2019-05-06T05:03:22.831Z,0
2019-05-06T05:06:52.464Z,0
2019-05-06T05:10:23.238Z,27.799999
2019-05-06T05:13:53.130Z,27.799999
2019-05-06T05:17:22.443Z,27.799999
2019-05-06T05:20:53.414Z,27.799999
2019-05-06T05:24:23.597Z,27.799999
2019-05-06T05:27:53.550Z,18.4
2019-05-06T05:31:23.544Z,18.4
2019-05-06T05:34:55.621Z,18.4
2019-05-06T05:38:26.659Z,18.4
2019-05-06T05:41:57.752Z,18.4
2019-05-06T05:45:26.885Z,15.8
2019-05-06T05:48:56.960Z,16.6
2019-05-06T05:52:28.042Z,16.6
2019-05-06T05:55:59.093Z,16.6
2019-05-06T05:59:29.134Z,16.6
2019-05-06T06:02:59.190Z,16.6
2019-05-06T06:06:29.337Z,20.6
2019-05-06T06:10:02.515Z,20.6
2019-05-06T06:13:31.996Z,20.6
2019-05-06T06:17:01.959Z,20.6
2019-05-06T06:20:32.616Z,20.6
2019-05-06T06:24:02.572Z,12.9
2019-05-06T06:27:33.171Z,12.9
2019-05-06T06:31:03.002Z,12.9
2019-05-06T06:34:32.942Z,12.9
2019-05-06T06:38:02.725Z,12.9
2019-05-06T06:41:32.914Z,16.5
2019-05-06T06:45:03.435Z,15.8
2019-05-06T06:48:34.143Z,15.8
2019-05-06T06:52:10.618Z,15.8
2019-05-06T06:55:36.217Z,15.8
2019-05-06T06:59:07.376Z,15.8
2019-05-06T07:02:38.373Z,15.4
2019-05-06T07:06:08.453Z,15.4
2019-05-06T07:09:38.594Z,15.4
2019-05-06T07:13:08.715Z,15.4
2019-05-06T07:16:38.827Z,15.4
2019-05-06T07:20:08.879Z,15.6
2019-05-06T07:23:38.927Z,15.6
2019-05-06T07:27:08.968Z,15.6
2019-05-06T07:30:39.087Z,15.6
2019-05-06T07:34:09.170Z,15.6
2019-05-06T07:37:39.201Z,14.4
2019-05-06T07:41:14.241Z,13
2019-05-06T07:44:42.295Z,13
2019-05-06T07:48:12.764Z,13
2019-05-06T07:51:41.963Z,13
2019-05-06T07:55:12.036Z,13
2019-05-06T07:58:43.085Z,13.9
2019-05-06T08:02:13.028Z,13.9
2019-05-06T08:05:54.499Z,13.9
2019-05-06T08:09:17.813Z,13.9
2019-05-06T08:12:48.833Z,13.9
2019-05-06T08:16:18.882Z,15.9
2019-05-06T08:19:48.930Z,15.9
2019-05-06T08:23:19.194Z,15.9
2019-05-06T08:26:49.244Z,15.9
2019-05-06T08:30:19.282Z,15.9
2019-05-06T08:33:48.319Z,14.1
2019-05-06T08:37:18.380Z,15.2
2019-05-06T08:40:49.563Z,15.2
2019-05-06T08:44:19.596Z,15.2
2019-05-06T08:47:49.619Z,15.2
2019-05-06T08:51:18.671Z,7.7
2019-05-06T08:54:48.778Z,10
2019-05-06T08:58:21.809Z,10
2019-05-06T09:01:50.012Z,10
2019-05-06T09:05:22.116Z,10
2019-05-06T09:08:52.116Z,10
2019-05-06T09:12:22.301Z,7.7
2019-05-06T09:15:52.460Z,7.7
2019-05-06T09:19:23.262Z,7.7
2019-05-06T09:22:52.198Z,7.7
2019-05-06T09:26:22.420Z,7.7
2019-05-06T09:29:52.248Z,9.3
2019-05-06T09:33:22.546Z,10.6
2019-05-06T09:36:56.008Z,10.6
2019-05-06T09:40:27.068Z,10.6
2019-05-06T09:43:58.103Z,10.6
2019-05-06T09:47:28.216Z,8.6
2019-05-06T09:50:59.269Z,8.9
2019-05-06T09:54:32.144Z,8.9
2019-05-06T09:58:03.118Z,8.9
2019-05-06T10:01:32.950Z,8.9
2019-05-06T10:05:03.309Z,8.9
2019-05-06T10:08:32.261Z,5.3
2019-05-06T10:12:02.038Z,5.3
2019-05-06T10:15:32.534Z,5.3
2019-05-06T10:19:02.534Z,5.3
2019-05-06T10:22:32.421Z,5.3
2019-05-06T10:25:59.975Z,7.7
2019-05-06T10:29:29.029Z,7.7
2019-05-06T10:32:59.071Z,7.7
2019-05-06T10:36:32.394Z,7.7
2019-05-06T10:40:02.842Z,7.7
2019-05-06T10:43:29.389Z,8.1
2019-05-06T10:46:59.425Z,6.7
2019-05-06T10:50:29.443Z,6.7
2019-05-06T10:54:02.923Z,6.7
2019-05-06T10:57:32.621Z,6.7
2019-05-06T11:01:00.699Z,6.7
2019-05-06T11:04:32.631Z,3.5
2019-05-06T11:08:02.309Z,3.5
2019-05-06T11:11:38.343Z,3.5
2019-05-06T11:15:08.756Z,3.5
2019-05-06T11:18:39.821Z,3.5
2019-05-06T11:22:08.900Z,5.5
2019-05-06T11:25:43.083Z,6
2019-05-06T11:29:13.998Z,6
2019-05-06T11:32:47.030Z,6
2019-05-06T11:36:19.119Z,6
2019-05-06T11:39:49.179Z,5.8
2019-05-06T11:43:18.226Z,6.2
2019-05-06T11:46:49.351Z,6.2
2019-05-06T11:50:19.392Z,6.2
2019-05-06T11:53:49.471Z,6.2
2019-05-06T11:57:19.469Z,6.2
2019-05-06T12:00:52.570Z,5.4
2019-05-06T12:04:22.649Z,5.4
2019-05-06T12:08:04.345Z,5.4
2019-05-06T12:11:27.672Z,5.4
2019-05-06T12:14:59.258Z,5.4
2019-05-06T12:18:29.342Z,5.6
2019-05-06T12:21:59.528Z,5.6
2019-05-06T12:25:30.576Z,5.6
2019-05-06T12:29:02.127Z,5.6
2019-05-06T12:32:33.060Z,5.6
2019-05-06T12:36:02.420Z,5.2
2019-05-06T12:39:32.743Z,6
2019-05-06T12:43:03.859Z,6
2019-05-06T12:46:33.079Z,6
2019-05-06T12:50:02.653Z,6
2019-05-06T12:53:32.886Z,6
2019-05-06T12:57:04.791Z,4.4
2019-05-06T13:00:34.836Z,4.4
2019-05-06T13:04:05.894Z,4.4
2019-05-06T13:07:37.777Z,4.4
2019-05-06T13:11:08.803Z,4.4
2019-05-06T13:14:38.918Z,7.5
2019-05-06T13:18:11.965Z,7.5
2019-05-06T13:21:42.430Z,7.5
2019-05-06T13:25:14.612Z,7.5
2019-05-06T13:28:45.685Z,7.5
2019-05-06T13:32:15.734Z,6.6
2019-05-06T13:35:45.796Z,5.5
2019-05-06T13:39:18.824Z,5.5
2019-05-06T13:42:49.872Z,5.5
2019-05-06T13:46:19.932Z,5.5
2019-05-06T13:49:49.004Z,5.5
2019-05-06T13:53:24.366Z,7.7
2019-05-06T13:56:54.901Z,7.7
2019-05-06T14:00:26.074Z,7.7
2019-05-06T14:03:57.095Z,7.7
2019-05-06T14:07:29.178Z,7.7
2019-05-06T14:11:04.110Z,9.1
2019-05-06T14:14:35.128Z,9.1
2019-05-06T14:18:06.196Z,9.1
2019-05-06T14:21:38.136Z,9.1
2019-05-06T14:25:09.883Z,9.1
2019-05-06T14:28:39.668Z,8.7
2019-05-06T14:31:45.493Z,0
2019-05-06T14:35:16.928Z,0
2019-05-06T14:38:48.591Z,0
2019-05-06T14:42:21.949Z,0
2019-05-06T14:45:48.981Z,0.4
2019-05-06T14:49:17.956Z,8
2019-05-06T14:52:48.917Z,8
2019-05-06T14:56:18.875Z,8
2019-05-06T14:59:50.921Z,8
2019-05-06T15:03:18.974Z,8
2019-05-06T15:06:48.941Z,8.1
2019-05-06T15:10:26.061Z,8.1
2019-05-06T15:13:54.888Z,8.1
2019-05-06T15:17:25.832Z,8.1
2019-05-06T15:20:56.835Z,8.1
2019-05-06T15:24:27.817Z,10.6
2019-05-06T15:27:57.755Z,10.1
2019-05-06T15:31:29.828Z,10.1
2019-05-06T15:35:02.476Z,10.1
2019-05-06T15:38:31.275Z,10.1
2019-05-06T15:43:25.168Z,8.7
2019-05-06T15:46:55.741Z,8.5
2019-05-06T15:50:26.677Z,8.5
2019-05-06T15:53:57.631Z,8.5
2019-05-06T15:57:28.639Z,8.5
2019-05-06T16:00:58.607Z,7.9
2019-05-06T16:04:28.590Z,9.8
2019-05-06T16:07:58.560Z,9.8
2019-05-06T16:11:28.571Z,9.8
2019-05-06T16:14:59.620Z,9.8
2019-05-06T16:18:29.602Z,9.8
2019-05-06T16:21:59.630Z,6.4
2019-05-06T16:25:29.640Z,6.4
2019-05-06T16:29:01.984Z,6.4
2019-05-06T16:32:33.202Z,6.4
2019-05-06T16:36:01.322Z,6.4
2019-05-06T16:39:35.042Z,7.9
2019-05-06T16:43:05.165Z,7.8
2019-05-06T16:46:37.241Z,7.8
2019-05-06T16:50:07.358Z,7.8
2019-05-06T16:53:55.499Z,7.8
2019-05-06T16:57:29.672Z,10.6
2019-05-06T17:01:03.308Z,10.4
2019-05-06T17:04:41.832Z,10.4
2019-05-06T17:08:13.775Z,10.4
2019-05-06T17:11:51.639Z,10.4
2019-05-06T17:15:23.683Z,7.1
2019-05-06T17:18:56.695Z,7.4
2019-05-06T17:22:27.962Z,7.4
2019-05-06T17:25:59.646Z,7.4
2019-05-06T17:29:32.706Z,7.4
2019-05-06T17:33:08.145Z,7.4
2019-05-06T17:36:50.647Z,10.3
2019-05-06T17:40:22.919Z,10.3
2019-05-06T17:43:52.227Z,10.3
2019-05-06T17:47:22.927Z,10.3
2019-05-06T17:50:55.618Z,10.3
2019-05-06T17:54:28.085Z,7.3
2019-05-06T17:58:02.410Z,7.3
2019-05-06T18:01:32.611Z,7.3
2019-05-06T18:05:03.337Z,7.3
2019-05-06T18:08:35.656Z,7.3
2019-05-06T18:12:05.935Z,9.8
2019-05-06T18:15:38.772Z,9
2019-05-06T18:19:12.821Z,9
2019-05-06T18:22:48.927Z,9
2019-05-06T18:26:26.657Z,9
2019-05-06T18:30:15.744Z,9.2
2019-05-06T18:33:47.728Z,9.3
2019-05-06T18:37:23.471Z,9.3
2019-05-06T18:41:02.527Z,9.3
2019-05-06T18:44:36.449Z,9.3
2019-05-06T18:48:12.412Z,9.3
2019-05-06T18:51:52.057Z,15.4
2019-05-06T18:55:24.442Z,15.4
2019-05-06T18:58:59.526Z,15.4
2019-05-06T19:02:34.507Z,15.4
2019-05-06T19:06:08.516Z,15.4
2019-05-06T19:09:42.358Z,8.3
2019-05-06T19:13:12.677Z,8.3
2019-05-06T19:16:51.532Z,8.3
2019-05-06T19:20:17.462Z,8.3
2019-05-06T19:23:48.618Z,8.3
2019-05-06T19:27:17.761Z,12.4
2019-05-06T19:30:46.928Z,11.6
2019-05-06T19:34:18.143Z,11.6
2019-05-06T19:37:48.265Z,11.6
2019-05-06T19:41:19.398Z,11.6
2019-05-06T19:44:49.517Z,9.8
2019-05-06T19:48:19.677Z,10.1
2019-05-06T19:51:49.839Z,10.1
2019-05-06T19:55:20.016Z,10.1
2019-05-06T19:58:55.100Z,10.1
2019-05-06T20:02:32.156Z,10.1
2019-05-06T20:06:02.478Z,12
2019-05-06T20:09:33.009Z,12
2019-05-06T20:13:06.556Z,12
2019-05-06T20:16:38.500Z,12
2019-05-06T20:20:09.367Z,12
2019-05-06T20:23:38.950Z,10.4
2019-05-06T20:27:08.866Z,9.9
2019-05-06T20:30:39.037Z,9.9
2019-05-06T20:34:10.192Z,9.9
2019-05-06T20:37:42.539Z,9.9
2019-05-06T20:41:12.866Z,8.1
2019-05-06T20:44:43.298Z,8.1
2019-05-06T20:48:14.968Z,8.1
2019-05-06T20:51:46.106Z,8.1
2019-05-06T20:55:22.585Z,8.1
2019-05-06T20:58:52.813Z,8.1
2019-05-06T21:02:25.540Z,13
2019-05-06T21:05:53.956Z,13
2019-05-06T21:09:25.042Z,13
2019-05-06T21:12:56.154Z,13
2019-05-06T21:16:27.284Z,13
